Canakkale Airport Canakkale TR
ICAO: LTBH
IATA: CKZ
Category: Medium
Scheduled Services: Yes

Elevation: 23 ft
TransAlt. 10000 ft.

Airport Communications:
YESILKOY APP:122.1
TWR:123.6

LTBH Zoom In..

If you have problems with the map follow the link
https://www.worldairports.se/pages/airport.php?
ICAO=LTBH

Runways:

(A) RW 04 length 5906 ft width 98 ft
---- / hdg 37

(B) RW 22 length 5906 ft width 98 ft
---- / hdg 217

Location; LTBH
Day. 22 / Time. 10.50 Zulu
* QNH: 1018
* Temperature: 19° c. 66.2°f.
* Wind from: 040° Speed 18 kn.
Dewpoint: 13° c.
Visibility: 10 km or more.
Clouds: Scattered 3000 ft.

LTBH 221050Z 04018KT 9999 SCT030 19/13 Q1018


Wind From 040°
Speed 18 kn.

 
 
jpsmedia.com for Web Design worldairports.se 2018   terms of use